Taft, Iran
Current Conditions -  °F | °C
As of 10:30 PM on Tuesday 21 Oct 2014 (Local Time) from OIYY Reporting Station
Few Clouds Few Clouds  
Wind Chill: 75°   Ceiling: Unl
Heat Index: 75°   Visibility: 6mi
Dew Point: 36°   Wind: 9mph
Humidity: 24%   Direction: 200°SSW
Pressure: 30"   Gusts: NA
Location:  31.73°N, 54.22°E
Report Text: OIYY 211830Z 20008KT 9999 FEW100 24/02 Q1016
Loading
Personal Weather Stations






























Interactive Weather Map
Tropical Storm Tracking
New forecast layout! Learn more

10-Day Weather Forecast

Advertisements
Track Severe Weather on mobile